Weather observations for the past three days for
Rhinelander, Rhinelander-Oneida County Airport
Imperial (Metric)
Date Time (cdt) Wind (mph) Vis. (mi.) Weather Sky Cond. Temperature (ºF) Relative Humidity Wind Chill (°F) Heat Index (°F) Pressure Precipitation (in)
Air Dwpt 6 hour altimeter (in) sea level (mb) 1 hr 3 hr 6 hr
Max. Min.
06 07:53 E 3 10.00 Fair CLR 61 59 93% 30.19 1022.0
06 06:53 Calm 0.25 Fog VV002 55.9 55.9 61 54 100% 30.18 1021.8
06 05:53 Calm 3.00 Fog/Mist CLR 55 55 100% 30.17 1021.3
06 04:53 Calm 5.00 Fog/Mist BKN002 55 55 100% 30.16 1020.8
06 03:53 Calm 10.00 Fair CLR 59 59 100% 30.16 1020.8
06 02:53 Calm 7.00 A Few Clouds FEW050 57.9 57.9 100% 30.16 1020.9
06 01:53 Calm 10.00 Fair CLR 59 57.9 96% 30.15 1020.4
06 00:53 Calm 10.00 Fair CLR 61 60.1 75 57.9 97% 30.15 1020.5
05 23:53 W 5 10.00 Fair CLR 59 57.9 96% 30.13 1019.9
05 22:53 Calm 10.00 Fair CLR 61 60.1 97% 30.11 1019.4
05 21:53 Calm 10.00 Fair CLR 66.9 62.1 84% 30.11 1019.1
05 20:53 SE 5 10.00 Fair CLR 69.1 61 76% 30.1 1018.8
05 19:53 SE 5 10.00 Overcast OVC050 71.1 61 71% 30.08 1018.3
05 18:53 SE 6 10.00 A Few Clouds FEW049 75 60.1 81 75 60% 77 30.08 1017.9
05 17:53 SE 6 10.00 A Few Clouds FEW049 78.1 60.1 54% 79 30.07 1017.8
05 16:53 E 6 10.00 Overcast OVC047 80.1 59 49% 81 30.08 1018.0
05 15:53 Calm 10.00 Partly Cloudy SCT050 78.1 59 52% 79 30.08 1018.1
05 12:53 SE 6 10.00 Partly Cloudy SCT035 77 59 77 62.1 54% 79 30.11 1018.8
05 11:53 Vrbl 6 10.00 Fair CLR 73.9 57.9 57% 30.11 1019.0
05 10:53 E 8 10.00 Fair CLR 73 57.9 59% 30.12 1019.4
05 09:53 E 10 10.00 Fair CLR 69.1 59 70% 30.1 1018.8
05 08:53 E 6 10.00 Mostly Cloudy BKN042 66 60.1 81% 30.1 1019.0
05 07:53 E 5 10.00 Overcast FEW010 OVC017 63 60.1 90% 30.1 1019.0
05 06:53 NE 5 10.00 Overcast BKN008 OVC013 62.1 60.1 64 62.1 93% 30.06 1017.7
05 05:53 NE 7 10.00 Overcast OVC007 62.1 61 96% 30.05 1017.3
05 04:53 E 5 7.00 Overcast OVC005 62.1 61 96% 30.07 1017.7
05 03:53 E 6 9.00 Overcast BKN005 OVC009 62.1 61 96% 30.06 1017.6
05 02:53 E 7 1.75 Fog/Mist OVC003 63 63 100% 30.05 1017.2
05 01:53 NE 3 3.00 Fog/Mist OVC003 64 63 96% 30.04 1016.8
05 00:53 E 3 4.00 Fog/Mist OVC004 64 63 69.1 64 96% 30.04 1016.7
04 23:53 Calm 4.00 Fog/Mist OVC004 64 63 96% 30.04 1016.6
04 22:53 E 7 10.00 Overcast OVC004 64.9 64 97% 30.03 1016.3
04 21:53 E 5 10.00 Overcast OVC004 66 64 93% 30.03 1016.7
04 20:53 E 8 10.00 Overcast OVC006 66 64.9 96% 30.02 1016.3
04 19:53 E 8 10.00 Overcast OVC007 66.9 66 97% 30.02 1016.1
04 18:53 E 7 10.00 Overcast OVC006 69.1 66.9 73 69.1 93% 30 1015.4 0.01
04 17:53 E 7 10.00 Overcast OVC005 69.1 68 96% 29.99 1015.1
04 16:53 E 8 10.00 Overcast SCT004 OVC014 70 69.1 97% 29.97 1014.2
04 15:53 NE 5 1.75 Fog/Mist OVC003 69.1 68 96% 29.96 1014.3 0.01 0.01
04 14:53 Vrbl 3 2.50 Fog/Mist OVC004 71.1 69.1 94% 29.96 1013.9
04 13:53 NE 5 3.00 Fog/Mist OVC006 71.1 69.1 94% 29.96 1014.1
04 12:53 E 3 9.00 Overcast OVC009 73 69.1 73 64 87% 29.96 1014.0
04 10:53 E 5 10.00 Overcast OVC006 71.1 66.9 87% 29.96 1013.8
04 09:53 S 6 8.00 Overcast OVC004 68 66 93% 29.96 1013.9
04 08:53 SE 5 2.50 Fog/Mist OVC002 66 64.9 96% 29.96 1014.0
04 07:53 SE 7 2.50 Fog/Mist OVC002 64.9 64 97% 29.96 1014.0
04 06:53 SE 6 10.00 Overcast OVC003 64 64 66 64 100% 29.94 1013.6
04 05:53 E 7 9.00 Overcast OVC004 64 63 96% 29.93 1013.0
04 04:53 E 9 4.00 Fog/Mist OVC004 64.9 64 97% 29.94 1013.2
04 03:53 E 9 10.00 Overcast OVC004 64.9 64 97% 29.94 1013.2
04 02:53 E 8 9.00 Overcast OVC004 66 64.9 96% 29.92 1012.4
04 01:53 SE 7 10.00 Overcast OVC004 66 64 93% 29.93 1012.9
04 00:53 SE 6 10.00 Overcast OVC005 66 64.9 68 66 96% 29.94 1013.2 0.02
03 23:53 SE 9 9.00 Overcast OVC004 66.9 66 97% 29.95 1013.7
03 22:53 SE 9 10.00 Thunderstorm in Vicinity OVC004 66.9 66 97% 29.97 1014.3 0.02
03 21:53 NE 7 10.00 Overcast OVC005 66.9 64.9 93% 29.97 1014.6
03 20:53 E 8 10.00 Overcast BKN006 OVC012 66.9 64.9 93% 29.96 1014.3
03 19:53 SE 8 10.00 Overcast OVC006 66.9 64.9 93% 29.97 1014.5
03 18:53 E 9 10.00 Overcast OVC007 68 64.9 75.9 68 90% 29.96 1014.4
03 17:53 E 8 10.00 Overcast OVC009 69.1 66 90% 29.96 1014.4
03 16:53 SE 10 10.00 Overcast OVC009 72 66 82% 29.94 1013.5
03 15:53 SE 7 10.00 Overcast OVC013 72 66 82% 29.96 1014.1
03 14:53 SE 8 10.00 Fair CLR 75.9 66.9 74% 77 29.95 1013.7
03 13:53 E 5 10.00 Fair CLR 73 66 79% 29.95 1013.8
03 12:53 E 5 10.00 Mostly Cloudy BKN007 70 64.9 70 61 84% 29.96 1014.1 0.01 0.23
03 11:53 Vrbl 3 9.00 Overcast OVC006 66 64 93% 29.98 1014.9 0.03
03 10:53 S 6 10.00 Thunderstorm in Vicinity Light Rain BKN010 BKN016 OVC070 64 63 96% 30.01 1015.7 0.19
03 09:53 SE 5 10.00 Light Rain FEW008 BKN048 OVC055 64.9 60.1 84% 30 1015.4
03 08:53 E 7 10.00 Overcast FEW026 BKN048 OVC065 64.9 59 81% 29.98 1014.8
Date Time (cdt) Wind (mph) Vis. (mi.) Weather Sky Cond. Air Dwpt Max. Min. Relative Humidity Wind Chill (°F) Heat Index (°F) altimeter (in) sea level (mb) 1 hr 3 hr 6 hr
6 hour
Temperature (ºF) Pressure Precipitation (in)